createdAt,value
2023-02-12T00:00:17.995Z,101311.61
2023-02-12T00:03:04.842Z,101317.86
2023-02-12T00:05:32.399Z,101324.83
2023-02-12T00:07:59.514Z,101319.84
2023-02-12T00:10:26.579Z,101327.38
2023-02-12T00:12:55.963Z,101334.04
2023-02-12T00:15:43.954Z,101336.11
2023-02-12T00:18:11.646Z,101340.95
2023-02-12T00:20:48.761Z,101349.89
2023-02-12T00:23:16.613Z,101362.25
2023-02-12T00:25:45.888Z,101367.58
2023-02-12T00:28:16.473Z,101369.67
2023-02-12T00:30:43.691Z,101376.23
2023-02-12T00:33:13.637Z,101380.52
2023-02-12T00:35:40.804Z,101377.54
2023-02-12T00:38:28.424Z,101380.89
2023-02-12T00:41:15.429Z,101380.48
2023-02-12T00:43:44.658Z,101380.08
2023-02-12T00:46:11.645Z,101388.57
2023-02-12T00:48:39.849Z,101392.96
2023-02-12T00:51:07.938Z,101393.61
2023-02-12T00:53:35.649Z,101401.84
2023-02-12T00:56:03.720Z,101404.77
2023-02-12T00:58:30.802Z,101406.98
2023-02-12T01:00:59.699Z,101418.94
2023-02-12T01:03:26.903Z,101412.41
2023-02-12T01:05:54.774Z,101419.95
2023-02-12T01:08:22.000Z,101426.14
2023-02-12T01:10:58.156Z,101423.88
2023-02-12T01:13:26.090Z,101432.54
2023-02-12T01:16:02.232Z,101440.67
2023-02-12T01:18:29.369Z,101437.90
2023-02-12T01:20:56.369Z,101442.34
2023-02-12T01:23:24.070Z,101446.49
2023-02-12T01:25:52.808Z,101451.84
2023-02-12T01:28:20.373Z,101466.60
2023-02-12T01:30:50.644Z,101462.55
2023-02-12T01:33:17.865Z,101460.39
2023-02-12T01:35:45.637Z,101466.91
2023-02-12T01:38:12.563Z,101475.55
2023-02-12T01:40:39.426Z,101472.45
2023-02-12T01:43:07.995Z,101478.28
2023-02-12T01:45:54.954Z,101476.89
2023-02-12T01:48:21.730Z,101479.41
2023-02-12T01:50:54.234Z,101478.85
2023-02-12T01:53:26.586Z,101474.23
2023-02-12T01:55:58.414Z,101473.39
2023-02-12T01:58:28.088Z,101482.82
2023-02-12T02:00:57.612Z,101490.35
2023-02-12T02:03:24.659Z,101494.41
2023-02-12T02:05:58.358Z,101504.46
2023-02-12T02:08:28.408Z,101503.58
2023-02-12T02:10:56.691Z,101504.43
2023-02-12T02:13:41.831Z,101509.75
2023-02-12T02:16:20.172Z,101510.45
2023-02-12T02:18:59.803Z,101522.97
2023-02-12T02:22:00.990Z,101527.76
2023-02-12T02:24:48.410Z,101521.08
2023-02-12T02:27:27.589Z,101517.48
2023-02-12T02:30:30.813Z,101533.63
2023-02-12T02:33:13.833Z,101549.33
2023-02-12T02:35:49.716Z,101556.90
2023-02-12T02:38:33.743Z,101555.93
2023-02-12T02:41:08.354Z,101558.22
2023-02-12T02:43:40.538Z,101567.02
2023-02-12T02:46:15.079Z,101570.30
2023-02-12T02:48:46.741Z,101569.94
2023-02-12T02:51:16.675Z,101571.25
2023-02-12T02:53:49.474Z,101579.55
2023-02-12T02:56:20.825Z,101592.47
2023-02-12T02:58:52.399Z,101597.52
2023-02-12T03:02:23.586Z,101605.52
2023-02-12T03:05:15.796Z,101616.17
2023-02-12T03:07:47.735Z,101623.60
2023-02-12T03:10:29.134Z,101627.14
2023-02-12T03:13:02.117Z,101631.20
2023-02-12T03:15:38.523Z,101645.23
2023-02-12T03:18:21.785Z,101657.48
2023-02-12T03:20:54.217Z,101661.59
2023-02-12T03:23:28.072Z,101656.85
2023-02-12T03:25:59.115Z,101661.65
2023-02-12T03:28:31.835Z,101656.63
2023-02-12T03:31:09.003Z,101659.59
2023-02-12T03:33:45.330Z,101668.35
2023-02-12T03:36:22.097Z,101674.67
2023-02-12T03:38:54.278Z,101672.41
2023-02-12T03:41:27.690Z,101678.48
2023-02-12T03:44:01.319Z,101681.35
2023-02-12T03:46:39.105Z,101688.84
2023-02-12T03:49:12.796Z,101691.70
2023-02-12T03:51:42.035Z,101700.38
2023-02-12T03:54:14.362Z,101706.02
2023-02-12T03:56:55.524Z,101711.26
2023-02-12T03:59:44.322Z,101726.00
2023-02-12T04:02:15.234Z,101729.80
2023-02-12T04:04:44.970Z,101734.61
2023-02-12T04:07:16.949Z,101733.61
2023-02-12T04:09:46.668Z,101731.58
2023-02-12T04:12:36.169Z,101734.80
2023-02-12T04:15:06.190Z,101736.83
2023-02-12T04:17:42.784Z,101739.06
2023-02-12T04:20:33.254Z,101741.64
2023-02-12T04:23:13.207Z,101743.52
2023-02-12T04:25:51.012Z,101745.41
2023-02-12T04:28:29.909Z,101749.86
2023-02-12T04:31:05.196Z,101757.21
2023-02-12T04:33:41.884Z,101756.79
2023-02-12T04:36:14.976Z,101755.71
2023-02-12T04:38:45.434Z,101755.28
2023-02-12T04:41:33.731Z,101754.11
2023-02-12T04:44:14.204Z,101758.08
2023-02-12T04:46:41.355Z,101761.10
2023-02-12T04:49:13.132Z,101762.11
2023-02-12T04:51:40.677Z,101765.66
2023-02-12T04:54:10.976Z,101770.73
2023-02-12T04:56:40.073Z,101772.11
2023-02-12T04:59:07.527Z,101776.21
2023-02-12T05:01:44.363Z,101777.65
2023-02-12T05:04:30.627Z,101784.63
2023-02-12T05:07:00.171Z,101792.20
2023-02-12T05:09:30.734Z,101796.19
2023-02-12T05:12:18.112Z,101807.90
2023-02-12T05:14:47.771Z,101811.33
2023-02-12T05:17:14.732Z,101815.41
2023-02-12T05:19:44.531Z,101819.17
2023-02-12T05:22:31.915Z,101827.85
2023-02-12T05:25:08.876Z,101828.63
2023-02-12T05:27:36.025Z,101830.29
2023-02-12T05:30:03.854Z,101832.30
2023-02-12T05:32:34.087Z,101833.34
2023-02-12T05:35:12.280Z,101831.01
2023-02-12T05:37:39.739Z,101833.78
2023-02-12T05:40:11.902Z,101844.83
2023-02-12T05:42:41.553Z,101849.92
2023-02-12T05:45:10.278Z,101855.91
2023-02-12T05:47:37.562Z,101859.64
2023-02-12T05:50:09.024Z,101864.10
2023-02-12T05:52:36.745Z,101871.52
2023-02-12T05:55:06.796Z,101880.63
2023-02-12T05:57:33.832Z,101878.92
2023-02-12T06:00:01.108Z,101882.66
2023-02-12T06:02:39.461Z,101891.18
2023-02-12T06:05:07.574Z,101895.12
2023-02-12T06:07:34.823Z,101901.83
2023-02-12T06:10:01.971Z,101911.77
2023-02-12T06:12:29.140Z,101913.17
2023-02-12T06:14:56.295Z,101921.63
2023-02-12T06:17:23.572Z,101923.60
2023-02-12T06:19:50.973Z,101933.61
2023-02-12T06:22:18.017Z,101929.25
2023-02-12T06:24:45.073Z,101931.55
2023-02-12T06:27:12.039Z,101926.65
2023-02-12T06:29:39.089Z,101932.88
2023-02-12T06:32:08.552Z,101935.64
2023-02-12T06:34:39.293Z,101935.84
2023-02-12T06:37:09.099Z,101937.05
2023-02-12T06:39:39.315Z,101936.69
2023-02-12T06:42:06.816Z,101937.70
2023-02-12T06:44:33.996Z,101944.30
2023-02-12T06:47:01.264Z,101947.79
2023-02-12T06:49:35.756Z,101938.84
2023-02-12T06:52:03.512Z,101942.39
2023-02-12T06:54:32.805Z,101943.38
2023-02-12T06:56:59.947Z,101946.96
2023-02-12T06:59:27.432Z,101947.63
2023-02-12T07:01:54.535Z,101948.24
2023-02-12T07:04:30.482Z,101956.21
2023-02-12T07:07:01.155Z,101957.41
2023-02-12T07:09:28.433Z,101955.27
2023-02-12T07:11:59.478Z,101955.54
2023-02-12T07:14:46.742Z,101961.29
2023-02-12T07:17:13.957Z,101970.15
2023-02-12T07:19:41.065Z,101972.02
2023-02-12T07:22:08.116Z,101969.58
2023-02-12T07:24:35.258Z,101965.85
2023-02-12T07:27:02.360Z,101967.62
2023-02-12T07:29:29.671Z,101966.02
2023-02-12T07:31:57.253Z,101961.84
2023-02-12T07:34:24.280Z,101952.55
2023-02-12T07:36:51.411Z,101954.46
2023-02-12T07:39:18.548Z,101953.92
2023-02-12T07:41:45.435Z,101944.30
2023-02-12T07:44:14.122Z,101938.17
2023-02-12T07:46:44.087Z,101943.41
2023-02-12T07:49:15.837Z,101945.99
2023-02-12T07:51:43.608Z,101951.27
2023-02-12T07:54:11.352Z,101954.25
2023-02-12T07:56:39.974Z,101957.52
2023-02-12T07:59:10.026Z,101961.09
2023-02-12T08:01:39.221Z,101960.06
2023-02-12T08:04:08.579Z,101956.57
2023-02-12T08:06:38.329Z,101954.63
2023-02-12T08:09:10.018Z,101955.20
2023-02-12T08:11:37.928Z,101960.50
2023-02-12T08:14:05.604Z,101966.77
2023-02-12T08:16:36.910Z,101976.46
2023-02-12T08:19:16.130Z,101979.95
2023-02-12T08:21:44.801Z,101985.89
2023-02-12T08:24:12.662Z,101988.10
2023-02-12T08:26:41.117Z,101993.65
2023-02-12T08:29:10.161Z,101995.05
2023-02-12T08:31:39.045Z,101996.09
2023-02-12T08:34:06.457Z,101993.02
2023-02-12T08:36:37.103Z,101994.58
2023-02-12T08:39:04.490Z,101999.48
2023-02-12T08:41:34.896Z,101993.46
2023-02-12T08:44:04.057Z,101992.52
2023-02-12T08:46:33.216Z,101986.42
2023-02-12T08:49:02.077Z,101977.98
2023-02-12T08:51:31.793Z,101975.37
2023-02-12T08:54:00.595Z,101967.73
2023-02-12T08:56:30.122Z,101967.09
2023-02-12T08:58:57.892Z,101969.90
2023-02-12T09:01:27.461Z,101977.47
2023-02-12T09:03:55.102Z,101983.02
2023-02-12T09:06:24.426Z,101985.45
2023-02-12T09:08:53.802Z,101982.48
2023-02-12T09:11:24.493Z,101986.45
2023-02-12T09:13:51.863Z,101989.95
2023-02-12T09:16:18.816Z,101991.77
2023-02-12T09:18:46.298Z,101991.80
2023-02-12T09:21:16.026Z,101989.25
2023-02-12T09:23:43.385Z,101993.55
2023-02-12T09:26:12.704Z,102000.52
2023-02-12T09:28:40.853Z,102000.75
2023-02-12T09:31:10.392Z,102001.59
2023-02-12T09:33:37.625Z,102005.75
2023-02-12T09:36:09.783Z,102003.30
2023-02-12T09:38:37.620Z,102007.67
2023-02-12T09:41:26.508Z,102006.77
2023-02-12T09:43:59.434Z,102009.61
2023-02-12T09:46:31.802Z,102014.42
2023-02-12T09:49:09.368Z,102008.13
2023-02-12T09:51:37.566Z,102017.81
2023-02-12T09:54:07.793Z,102018.30
2023-02-12T09:56:39.557Z,102018.28
2023-02-12T09:59:08.672Z,102022.54
2023-02-12T10:01:36.979Z,102025.90
2023-02-12T10:04:06.394Z,102028.52
2023-02-12T10:06:39.997Z,102031.20
2023-02-12T10:09:21.627Z,102026.27
2023-02-12T10:12:01.877Z,102023.50
2023-02-12T10:14:59.642Z,102020.59
2023-02-12T10:17:37.161Z,102021.91
2023-02-12T10:20:23.951Z,102025.58
2023-02-12T10:23:00.138Z,102023.34
2023-02-12T10:25:35.110Z,102023.48
2023-02-12T10:28:09.556Z,102022.27
2023-02-12T10:30:45.540Z,102029.63
2023-02-12T10:33:20.974Z,102032.02
2023-02-12T10:35:56.221Z,102026.27
2023-02-12T10:38:28.995Z,102022.77
2023-02-12T10:40:58.371Z,102021.56
2023-02-12T10:43:26.204Z,102013.44
2023-02-12T10:45:53.117Z,102019.71
2023-02-12T10:48:24.012Z,102019.46
2023-02-12T10:51:04.006Z,102025.56
2023-02-12T10:53:35.349Z,102023.96
2023-02-12T10:56:19.694Z,102021.60
2023-02-12T10:58:56.531Z,102019.13
2023-02-12T11:01:27.774Z,102025.21
2023-02-12T11:03:54.834Z,102028.48
2023-02-12T11:06:24.169Z,102028.80
2023-02-12T11:08:51.922Z,102026.18
2023-02-12T11:11:26.323Z,102023.98
2023-02-12T11:14:00.988Z,102022.27
2023-02-12T11:16:34.455Z,102028.21
2023-02-12T11:19:06.818Z,102031.80
2023-02-12T11:21:34.306Z,102032.33
2023-02-12T11:24:30.292Z,102031.63
2023-02-12T11:27:20.878Z,102045.41
2023-02-12T11:29:49.752Z,102041.71
2023-02-12T11:32:21.019Z,102035.73
2023-02-12T11:35:08.039Z,102034.19
2023-02-12T11:37:43.887Z,102026.38
2023-02-12T11:40:34.202Z,102021.40
2023-02-12T11:43:06.315Z,102017.94
2023-02-12T11:45:37.592Z,102009.01
2023-02-12T11:48:14.916Z,102015.26
2023-02-12T11:50:50.472Z,102012.25
2023-02-12T11:53:32.359Z,102004.52
2023-02-12T11:56:03.197Z,102000.44
2023-02-12T11:58:34.169Z,102005.86
2023-02-12T12:01:10.046Z,102009.52
2023-02-12T12:03:46.198Z,102009.17
2023-02-12T12:06:31.087Z,102011.79
2023-02-12T12:09:02.901Z,102016.52
2023-02-12T12:11:35.483Z,102017.55
2023-02-12T12:14:09.173Z,102013.02
2023-02-12T12:16:59.162Z,102007.81
2023-02-12T12:19:47.361Z,102006.26
2023-02-12T12:22:46.098Z,102002.28
2023-02-12T12:25:41.937Z,101992.38
2023-02-12T12:28:37.442Z,101988.20
2023-02-12T12:31:11.701Z,101988.16
2023-02-12T12:33:45.616Z,101996.92
2023-02-12T12:36:44.393Z,101998.25
2023-02-12T12:39:28.337Z,102001.14
2023-02-12T12:42:24.796Z,102000.90
2023-02-12T12:45:11.814Z,101995.91
2023-02-12T12:47:50.360Z,101992.30
2023-02-12T12:50:43.302Z,101987.14
2023-02-12T12:53:26.481Z,101991.07
2023-02-12T12:56:12.301Z,101991.98
2023-02-12T12:59:01.348Z,101990.27
2023-02-12T13:02:12.615Z,101983.17
2023-02-12T13:05:21.307Z,101980.84
2023-02-12T13:08:03.077Z,101983.80
2023-02-12T13:10:40.198Z,101987.16
2023-02-12T13:13:19.459Z,101979.88
2023-02-12T13:15:51.141Z,101979.14
2023-02-12T13:18:34.927Z,101979.26
2023-02-12T13:21:28.027Z,101978.11
2023-02-12T13:24:08.934Z,101979.67
2023-02-12T13:26:45.972Z,101983.23
2023-02-12T13:29:17.872Z,101980.23
2023-02-12T13:31:55.505Z,101983.30
2023-02-12T13:34:28.548Z,101977.39
2023-02-12T13:37:21.042Z,101985.23
2023-02-12T13:39:51.006Z,101992.14
2023-02-12T13:42:35.640Z,101993.85
2023-02-12T13:45:13.868Z,101993.87
2023-02-12T13:47:53.722Z,101990.29
2023-02-12T13:50:48.541Z,101991.72
2023-02-12T13:53:24.718Z,101986.89
2023-02-12T13:56:08.378Z,101983.08
2023-02-12T13:58:52.251Z,101982.45
2023-02-12T14:01:46.893Z,101982.20
2023-02-12T14:04:38.219Z,101984.97
2023-02-12T14:07:26.984Z,101985.85
2023-02-12T14:10:06.784Z,101984.10
2023-02-12T14:12:40.559Z,101985.45
2023-02-12T14:15:25.675Z,101987.73
2023-02-12T14:18:24.384Z,101991.45
2023-02-12T14:21:44.137Z,101991.50
2023-02-12T14:24:53.077Z,101982.36
2023-02-12T14:27:43.184Z,101983.00
2023-02-12T14:30:27.184Z,101983.05
2023-02-12T14:33:22.992Z,101983.29
2023-02-12T14:36:17.173Z,101986.39
2023-02-12T14:39:06.445Z,101987.23
2023-02-12T14:41:42.065Z,101986.23
2023-02-12T14:44:47.586Z,101983.94
2023-02-12T14:47:54.163Z,101980.57
2023-02-12T14:50:30.573Z,101980.00
2023-02-12T14:53:06.465Z,101982.08
2023-02-12T14:55:36.170Z,101988.17
2023-02-12T14:58:06.545Z,101991.79
2023-02-12T15:00:46.732Z,101989.73
